sensor_id;sensor_type;location;lat;lon;timestamp;temperature;humidity
65637;DHT22;52327;42.622;23.316;2022-12-24T00:00:00;2.94;84.73
65637;DHT22;52327;42.622;23.316;2022-12-24T00:02:25;3.01;83.76
65637;DHT22;52327;42.622;23.316;2022-12-24T00:04:51;2.94;84.17
65637;DHT22;52327;42.622;23.316;2022-12-24T00:07:16;2.94;84.87
65637;DHT22;52327;42.622;23.316;2022-12-24T00:09:42;2.99;83.68
65637;DHT22;52327;42.622;23.316;2022-12-24T00:12:07;2.89;83.46
65637;DHT22;52327;42.622;23.316;2022-12-24T00:14:32;2.86;84.71
65637;DHT22;52327;42.622;23.316;2022-12-24T00:16:58;2.87;84.89
65637;DHT22;52327;42.622;23.316;2022-12-24T00:19:23;2.97;84.57
65637;DHT22;52327;42.622;23.316;2022-12-24T00:21:49;3.11;83.96
65637;DHT22;52327;42.622;23.316;2022-12-24T00:24:14;3.24;82.84
65637;DHT22;52327;42.622;23.316;2022-12-24T00:26:39;3.25;83.85
65637;DHT22;52327;42.622;23.316;2022-12-24T00:29:05;3.27;84.95
65637;DHT22;52327;42.622;23.316;2022-12-24T00:31:31;3.17;84.16
65637;DHT22;52327;42.622;23.316;2022-12-24T00:33:56;3.28;84.27
65637;DHT22;52327;42.622;23.316;2022-12-24T00:36:21;3.34;83.71
65637;DHT22;52327;42.622;23.316;2022-12-24T00:38:47;3.41;83.81
65637;DHT22;52327;42.622;23.316;2022-12-24T00:41:13;3.21;83.48
65637;DHT22;52327;42.622;23.316;2022-12-24T00:43:55;3.17;83.95
65637;DHT22;52327;42.622;23.316;2022-12-24T00:46:22;3.17;83.18
65637;DHT22;52327;42.622;23.316;2022-12-24T00:48:48;3.07;83.94
65637;DHT22;52327;42.622;23.316;2022-12-24T00:51:13;3.15;83.77
65637;DHT22;52327;42.622;23.316;2022-12-24T00:53:39;3.13;83.97
65637;DHT22;52327;42.622;23.316;2022-12-24T00:56:05;3.18;84.41
65637;DHT22;52327;42.622;23.316;2022-12-24T00:58:31;3.18;84.54
65637;DHT22;52327;42.622;23.316;2022-12-24T01:00:56;3.18;83.65
65637;DHT22;52327;42.622;23.316;2022-12-24T01:03:21;3.21;84.71
65637;DHT22;52327;42.622;23.316;2022-12-24T01:05:47;3.24;84.58
65637;DHT22;52327;42.622;23.316;2022-12-24T01:08:12;3.18;85.00
65637;DHT22;52327;42.622;23.316;2022-12-24T01:10:38;3.15;84.84
65637;DHT22;52327;42.622;23.316;2022-12-24T01:13:03;3.14;85.35
65637;DHT22;52327;42.622;23.316;2022-12-24T01:15:29;3.21;83.92
65637;DHT22;52327;42.622;23.316;2022-12-24T01:17:54;3.05;84.05
65637;DHT22;52327;42.622;23.316;2022-12-24T01:20:20;2.86;84.04
65637;DHT22;52327;42.622;23.316;2022-12-24T01:22:45;2.80;84.28
65637;DHT22;52327;42.622;23.316;2022-12-24T01:25:11;2.84;84.89
65637;DHT22;52327;42.622;23.316;2022-12-24T01:27:37;2.80;84.15
65637;DHT22;52327;42.622;23.316;2022-12-24T01:30:04;2.67;84.45
65637;DHT22;52327;42.622;23.316;2022-12-24T01:32:30;2.72;85.55
65637;DHT22;52327;42.622;23.316;2022-12-24T01:34:55;2.77;84.90
65637;DHT22;52327;42.622;23.316;2022-12-24T01:37:22;2.76;84.57
65637;DHT22;52327;42.622;23.316;2022-12-24T01:39:47;2.82;83.61
65637;DHT22;52327;42.622;23.316;2022-12-24T01:42:20;2.90;84.33
65637;DHT22;52327;42.622;23.316;2022-12-24T01:45:40;2.90;83.31
65637;DHT22;52327;42.622;23.316;2022-12-24T01:48:27;2.93;84.03
65637;DHT22;52327;42.622;23.316;2022-12-24T01:51:13;2.87;83.40
65637;DHT22;52327;42.622;23.316;2022-12-24T01:53:41;2.79;83.55
65637;DHT22;52327;42.622;23.316;2022-12-24T01:56:08;2.67;83.64
65637;DHT22;52327;42.622;23.316;2022-12-24T01:58:36;2.69;84.35
65637;DHT22;52327;42.622;23.316;2022-12-24T02:01:02;2.64;84.13
65637;DHT22;52327;42.622;23.316;2022-12-24T02:03:28;2.69;85.65
65637;DHT22;52327;42.622;23.316;2022-12-24T02:05:54;2.60;84.81
65637;DHT22;52327;42.622;23.316;2022-12-24T02:08:21;2.66;84.91
65637;DHT22;52327;42.622;23.316;2022-12-24T02:10:47;2.63;83.90
65637;DHT22;52327;42.622;23.316;2022-12-24T02:13:16;2.56;84.67
65637;DHT22;52327;42.622;23.316;2022-12-24T02:16:05;2.57;83.83
65637;DHT22;52327;42.622;23.316;2022-12-24T02:18:40;2.57;84.37
65637;DHT22;52327;42.622;23.316;2022-12-24T02:21:29;2.50;84.47
65637;DHT22;52327;42.622;23.316;2022-12-24T02:32:04;2.56;83.90
65637;DHT22;52327;42.622;23.316;2022-12-24T02:37:11;2.48;86.00
65637;DHT22;52327;42.622;23.316;2022-12-24T02:39:45;2.42;84.85
65637;DHT22;52327;42.622;23.316;2022-12-24T02:42:15;2.25;85.80
65637;DHT22;52327;42.622;23.316;2022-12-24T02:44:48;2.25;86.21
65637;DHT22;52327;42.622;23.316;2022-12-24T02:47:17;2.21;84.88
65637;DHT22;52327;42.622;23.316;2022-12-24T02:49:45;2.18;86.19
65637;DHT22;52327;42.622;23.316;2022-12-24T02:52:37;2.42;85.58
65637;DHT22;52327;42.622;23.316;2022-12-24T02:55:07;2.52;84.49
65637;DHT22;52327;42.622;23.316;2022-12-24T03:00:12;2.57;85.08
65637;DHT22;52327;42.622;23.316;2022-12-24T03:05:48;2.63;84.52
65637;DHT22;52327;42.622;23.316;2022-12-24T03:08:20;2.42;84.68
65637;DHT22;52327;42.622;23.316;2022-12-24T03:10:54;2.42;85.66
65637;DHT22;52327;42.622;23.316;2022-12-24T03:13:21;2.29;85.96
65637;DHT22;52327;42.622;23.316;2022-12-24T03:15:48;2.25;86.46
65637;DHT22;52327;42.622;23.316;2022-12-24T03:18:17;2.25;86.62
65637;DHT22;52327;42.622;23.316;2022-12-24T03:20:49;2.22;85.43
65637;DHT22;52327;42.622;23.316;2022-12-24T03:23:17;2.24;86.54
65637;DHT22;52327;42.622;23.316;2022-12-24T03:25:43;2.19;85.70
65637;DHT22;52327;42.622;23.316;2022-12-24T03:28:13;2.02;85.48
65637;DHT22;52327;42.622;23.316;2022-12-24T03:30:41;1.98;86.98
65637;DHT22;52327;42.622;23.316;2022-12-24T03:33:07;2.05;87.37
65637;DHT22;52327;42.622;23.316;2022-12-24T03:35:32;1.99;86.80
65637;DHT22;52327;42.622;23.316;2022-12-24T03:37:57;1.90;87.30
65637;DHT22;52327;42.622;23.316;2022-12-24T03:40:23;1.97;86.52
65637;DHT22;52327;42.622;23.316;2022-12-24T03:42:48;1.99;85.11
65637;DHT22;52327;42.622;23.316;2022-12-24T03:45:14;1.94;85.44
65637;DHT22;52327;42.622;23.316;2022-12-24T03:47:39;1.97;84.94
65637;DHT22;52327;42.622;23.316;2022-12-24T03:50:05;1.87;86.40
65637;DHT22;52327;42.622;23.316;2022-12-24T03:52:31;1.80;87.22
65637;DHT22;52327;42.622;23.316;2022-12-24T03:54:57;1.81;87.01
65637;DHT22;52327;42.622;23.316;2022-12-24T03:57:22;1.74;86.93
65637;DHT22;52327;42.622;23.316;2022-12-24T03:59:47;1.70;87.52
65637;DHT22;52327;42.622;23.316;2022-12-24T04:02:13;1.67;87.33
65637;DHT22;52327;42.622;23.316;2022-12-24T04:04:38;1.74;87.77
65637;DHT22;52327;42.622;23.316;2022-12-24T04:07:05;1.88;86.35
65637;DHT22;52327;42.622;23.316;2022-12-24T04:09:30;1.91;86.48
65637;DHT22;52327;42.622;23.316;2022-12-24T04:11:56;1.90;86.02
65637;DHT22;52327;42.622;23.316;2022-12-24T04:14:21;1.87;86.12
65637;DHT22;52327;42.622;23.316;2022-12-24T04:16:46;1.85;86.10
65637;DHT22;52327;42.622;23.316;2022-12-24T04:19:12;1.93;86.60
65637;DHT22;52327;42.622;23.316;2022-12-24T04:21:37;1.99;86.62
65637;DHT22;52327;42.622;23.316;2022-12-24T04:24:03;2.02;86.09
65637;DHT22;52327;42.622;23.316;2022-12-24T04:26:28;2.11;86.01
65637;DHT22;52327;42.622;23.316;2022-12-24T04:28:54;2.05;85.65
65637;DHT22;52327;42.622;23.316;2022-12-24T04:31:19;2.07;85.51
65637;DHT22;52327;42.622;23.316;2022-12-24T04:33:45;2.01;85.39
65637;DHT22;52327;42.622;23.316;2022-12-24T04:36:13;2.04;86.26
65637;DHT22;52327;42.622;23.316;2022-12-24T04:38:39;2.07;85.67
65637;DHT22;52327;42.622;23.316;2022-12-24T04:41:11;1.98;85.41
65637;DHT22;52327;42.622;23.316;2022-12-24T04:43:36;1.95;85.52
65637;DHT22;52327;42.622;23.316;2022-12-24T04:46:05;1.88;85.62
65637;DHT22;52327;42.622;23.316;2022-12-24T04:48:31;1.82;86.12
65637;DHT22;52327;42.622;23.316;2022-12-24T04:50:57;1.88;86.84
65637;DHT22;52327;42.622;23.316;2022-12-24T04:53:22;1.85;86.03
65637;DHT22;52327;42.622;23.316;2022-12-24T04:55:47;1.87;87.13
65637;DHT22;52327;42.622;23.316;2022-12-24T04:58:13;1.94;85.98
65637;DHT22;52327;42.622;23.316;2022-12-24T05:00:39;1.93;86.21
65637;DHT22;52327;42.622;23.316;2022-12-24T05:03:05;1.99;85.40
65637;DHT22;52327;42.622;23.316;2022-12-24T05:05:30;1.99;83.93
65637;DHT22;52327;42.622;23.316;2022-12-24T05:07:56;2.05;84.32
65637;DHT22;52327;42.622;23.316;2022-12-24T05:10:21;2.12;84.09
65637;DHT22;52327;42.622;23.316;2022-12-24T05:12:47;2.15;84.10
65637;DHT22;52327;42.622;23.316;2022-12-24T05:15:13;2.12;84.56
65637;DHT22;52327;42.622;23.316;2022-12-24T05:17:38;2.18;84.27
65637;DHT22;52327;42.622;23.316;2022-12-24T05:20:04;2.24;84.46
65637;DHT22;52327;42.622;23.316;2022-12-24T05:22:30;2.25;83.95
65637;DHT22;52327;42.622;23.316;2022-12-24T05:25:13;2.15;84.86
65637;DHT22;52327;42.622;23.316;2022-12-24T05:27:57;2.12;85.79
65637;DHT22;52327;42.622;23.316;2022-12-24T05:30:23;2.28;84.87
65637;DHT22;52327;42.622;23.316;2022-12-24T05:32:48;2.22;84.91
65637;DHT22;52327;42.622;23.316;2022-12-24T05:35:13;2.25;84.83
65637;DHT22;52327;42.622;23.316;2022-12-24T05:37:39;2.29;84.48
65637;DHT22;52327;42.622;23.316;2022-12-24T05:40:05;2.19;85.60
65637;DHT22;52327;42.622;23.316;2022-12-24T05:42:30;2.21;85.82
65637;DHT22;52327;42.622;23.316;2022-12-24T05:44:56;2.21;84.95
65637;DHT22;52327;42.622;23.316;2022-12-24T05:47:21;2.05;86.08
65637;DHT22;52327;42.622;23.316;2022-12-24T05:49:46;2.11;86.52
65637;DHT22;52327;42.622;23.316;2022-12-24T05:52:12;2.24;86.42
65637;DHT22;52327;42.622;23.316;2022-12-24T05:54:37;2.40;85.02
65637;DHT22;52327;42.622;23.316;2022-12-24T05:57:02;2.48;84.76
65637;DHT22;52327;42.622;23.316;2022-12-24T05:59:28;2.57;85.15
65637;DHT22;52327;42.622;23.316;2022-12-24T06:01:53;2.76;84.31
65637;DHT22;52327;42.622;23.316;2022-12-24T06:04:19;2.87;83.61
65637;DHT22;52327;42.622;23.316;2022-12-24T06:06:44;2.94;83.84
65637;DHT22;52327;42.622;23.316;2022-12-24T06:09:09;2.93;83.91
65637;DHT22;52327;42.622;23.316;2022-12-24T06:11:35;2.96;83.77
65637;DHT22;52327;42.622;23.316;2022-12-24T06:14:00;3.05;83.97
65637;DHT22;52327;42.622;23.316;2022-12-24T06:16:26;3.03;83.88
65637;DHT22;52327;42.622;23.316;2022-12-24T06:18:51;3.14;83.99
65637;DHT22;52327;42.622;23.316;2022-12-24T06:21:17;3.27;82.40
65637;DHT22;52327;42.622;23.316;2022-12-24T06:23:43;3.25;83.54
65637;DHT22;52327;42.622;23.316;2022-12-24T06:26:12;3.21;83.76
65637;DHT22;52327;42.622;23.316;2022-12-24T06:28:38;3.17;83.87
65637;DHT22;52327;42.622;23.316;2022-12-24T06:31:05;3.23;83.99
65637;DHT22;52327;42.622;23.316;2022-12-24T06:33:31;3.28;83.57
65637;DHT22;52327;42.622;23.316;2022-12-24T06:35:57;3.31;83.52
65637;DHT22;52327;42.622;23.316;2022-12-24T06:38:22;3.28;83.83
65637;DHT22;52327;42.622;23.316;2022-12-24T06:40:48;3.32;83.98
65637;DHT22;52327;42.622;23.316;2022-12-24T06:43:14;3.38;83.82
65637;DHT22;52327;42.622;23.316;2022-12-24T06:45:43;3.46;86.20
65637;DHT22;52327;42.622;23.316;2022-12-24T06:48:09;3.46;84.52
65637;DHT22;52327;42.622;23.316;2022-12-24T06:50:34;3.36;84.26
65637;DHT22;52327;42.622;23.316;2022-12-24T06:53:00;3.55;84.04
65637;DHT22;52327;42.622;23.316;2022-12-24T06:55:25;3.92;81.29
65637;DHT22;52327;42.622;23.316;2022-12-24T06:57:50;4.05;81.82
65637;DHT22;52327;42.622;23.316;2022-12-24T07:00:16;4.26;81.61
65637;DHT22;52327;42.622;23.316;2022-12-24T07:02:43;4.51;81.00
65637;DHT22;52327;42.622;23.316;2022-12-24T07:05:10;4.62;80.67
65637;DHT22;52327;42.622;23.316;2022-12-24T07:07:37;4.69;80.49
65637;DHT22;52327;42.622;23.316;2022-12-24T07:10:04;4.93;80.28
65637;DHT22;52327;42.622;23.316;2022-12-24T07:12:29;5.00;80.09
65637;DHT22;52327;42.622;23.316;2022-12-24T07:14:55;5.13;79.93
65637;DHT22;52327;42.622;23.316;2022-12-24T07:17:20;5.28;79.74
65637;DHT22;52327;42.622;23.316;2022-12-24T07:19:46;5.42;79.51
65637;DHT22;52327;42.622;23.316;2022-12-24T07:22:11;5.51;79.30
65637;DHT22;52327;42.622;23.316;2022-12-24T07:24:36;5.61;78.93
65637;DHT22;52327;42.622;23.316;2022-12-24T07:27:02;5.71;78.42
65637;DHT22;52327;42.622;23.316;2022-12-24T07:29:27;5.75;78.43
65637;DHT22;52327;42.622;23.316;2022-12-24T07:31:52;5.84;77.97
65637;DHT22;52327;42.622;23.316;2022-12-24T07:34:18;5.86;77.76
65637;DHT22;52327;42.622;23.316;2022-12-24T07:36:43;5.87;77.45
65637;DHT22;52327;42.622;23.316;2022-12-24T07:39:09;5.78;78.08
65637;DHT22;52327;42.622;23.316;2022-12-24T07:41:34;5.80;78.39
65637;DHT22;52327;42.622;23.316;2022-12-24T07:43:59;5.86;78.46
65637;DHT22;52327;42.622;23.316;2022-12-24T07:46:25;5.81;78.51
65637;DHT22;52327;42.622;23.316;2022-12-24T07:48:50;5.83;78.11
65637;DHT22;52327;42.622;23.316;2022-12-24T07:51:15;5.95;78.08
65637;DHT22;52327;42.622;23.316;2022-12-24T07:53:41;6.11;77.88
65637;DHT22;52327;42.622;23.316;2022-12-24T07:56:15;6.36;77.30
65637;DHT22;52327;42.622;23.316;2022-12-24T07:58:41;6.52;76.82
65637;DHT22;52327;42.622;23.316;2022-12-24T08:01:07;6.65;76.34
65637;DHT22;52327;42.622;23.316;2022-12-24T08:03:33;6.82;75.95
65637;DHT22;52327;42.622;23.316;2022-12-24T08:05:58;6.96;75.95
65637;DHT22;52327;42.622;23.316;2022-12-24T08:08:24;7.05;75.58
65637;DHT22;52327;42.622;23.316;2022-12-24T08:10:50;7.15;75.29
65637;DHT22;52327;42.622;23.316;2022-12-24T08:13:16;7.14;73.84
65637;DHT22;52327;42.622;23.316;2022-12-24T08:15:42;7.04;75.03
65637;DHT22;52327;42.622;23.316;2022-12-24T08:18:08;7.08;74.81
65637;DHT22;52327;42.622;23.316;2022-12-24T08:20:33;7.01;75.45
65637;DHT22;52327;42.622;23.316;2022-12-24T08:22:59;7.18;75.63
65637;DHT22;52327;42.622;23.316;2022-12-24T08:25:24;7.44;74.58
65637;DHT22;52327;42.622;23.316;2022-12-24T08:27:50;7.56;74.23
65637;DHT22;52327;42.622;23.316;2022-12-24T08:30:15;7.65;73.52
65637;DHT22;52327;42.622;23.316;2022-12-24T08:32:41;7.69;73.63
65637;DHT22;52327;42.622;23.316;2022-12-24T08:35:06;7.75;73.79
65637;DHT22;52327;42.622;23.316;2022-12-24T08:37:32;7.82;73.57
65637;DHT22;52327;42.622;23.316;2022-12-24T08:39:57;7.92;73.57
65637;DHT22;52327;42.622;23.316;2022-12-24T08:42:23;8.02;73.51
65637;DHT22;52327;42.622;23.316;2022-12-24T08:44:48;8.07;72.46
65637;DHT22;52327;42.622;23.316;2022-12-24T08:47:13;8.17;72.66
65637;DHT22;52327;42.622;23.316;2022-12-24T08:49:39;8.30;71.89
65637;DHT22;52327;42.622;23.316;2022-12-24T08:52:04;8.40;71.10
65637;DHT22;52327;42.622;23.316;2022-12-24T08:54:31;8.40;71.65
65637;DHT22;52327;42.622;23.316;2022-12-24T08:56:56;8.16;71.28
65637;DHT22;52327;42.622;23.316;2022-12-24T08:59:22;7.75;71.35
65637;DHT22;52327;42.622;23.316;2022-12-24T09:01:47;7.43;72.60
65637;DHT22;52327;42.622;23.316;2022-12-24T09:04:13;7.23;72.95
65637;DHT22;52327;42.622;23.316;2022-12-24T09:06:38;6.93;73.60
65637;DHT22;52327;42.622;23.316;2022-12-24T09:09:05;6.90;74.07
65637;DHT22;52327;42.622;23.316;2022-12-24T09:11:33;6.92;73.81
65637;DHT22;52327;42.622;23.316;2022-12-24T09:13:59;6.82;75.23
65637;DHT22;52327;42.622;23.316;2022-12-24T09:16:24;7.07;75.08
65637;DHT22;52327;42.622;23.316;2022-12-24T09:18:50;7.32;74.87
65637;DHT22;52327;42.622;23.316;2022-12-24T09:21:15;7.59;74.27
65637;DHT22;52327;42.622;23.316;2022-12-24T09:23:45;7.85;73.57
65637;DHT22;52327;42.622;23.316;2022-12-24T09:26:17;8.06;73.33
65637;DHT22;52327;42.622;23.316;2022-12-24T09:28:43;8.30;72.09
65637;DHT22;52327;42.622;23.316;2022-12-24T09:31:11;8.58;71.16
65637;DHT22;52327;42.622;23.316;2022-12-24T09:33:38;8.68;69.64
65637;DHT22;52327;42.622;23.316;2022-12-24T09:36:04;8.82;69.49
65637;DHT22;52327;42.622;23.316;2022-12-24T09:38:30;8.97;70.41
65637;DHT22;52327;42.622;23.316;2022-12-24T09:40:57;9.26;69.75
65637;DHT22;52327;42.622;23.316;2022-12-24T09:43:24;9.40;69.47
65637;DHT22;52327;42.622;23.316;2022-12-24T09:46:03;9.04;69.87
65637;DHT22;52327;42.622;23.316;2022-12-24T09:48:34;8.77;70.17
65637;DHT22;52327;42.622;23.316;2022-12-24T09:51:08;8.64;71.66
65637;DHT22;52327;42.622;23.316;2022-12-24T09:56:26;8.57;72.03
65637;DHT22;52327;42.622;23.316;2022-12-24T09:58:59;8.98;70.79
65637;DHT22;52327;42.622;23.316;2022-12-24T10:01:27;9.20;70.84
65637;DHT22;52327;42.622;23.316;2022-12-24T10:03:53;9.46;69.95
65637;DHT22;52327;42.622;23.316;2022-12-24T10:06:21;9.73;67.47
65637;DHT22;52327;42.622;23.316;2022-12-24T10:12:00;9.69;67.74
65637;DHT22;52327;42.622;23.316;2022-12-24T10:19:51;9.89;67.29
65637;DHT22;52327;42.622;23.316;2022-12-24T10:22:25;9.91;67.74
65637;DHT22;52327;42.622;23.316;2022-12-24T10:25:11;9.98;67.89
65637;DHT22;52327;42.622;23.316;2022-12-24T10:27:39;9.93;67.12
65637;DHT22;52327;42.622;23.316;2022-12-24T10:30:19;10.04;66.90
65637;DHT22;52327;42.622;23.316;2022-12-24T10:32:51;10.17;66.89
65637;DHT22;52327;42.622;23.316;2022-12-24T10:37:47;10.52;65.42
65637;DHT22;52327;42.622;23.316;2022-12-24T10:42:41;10.68;64.70
65637;DHT22;52327;42.622;23.316;2022-12-24T10:45:13;10.77;64.84
65637;DHT22;52327;42.622;23.316;2022-12-24T10:47:41;10.88;65.62
65637;DHT22;52327;42.622;23.316;2022-12-24T10:50:17;10.97;64.90
65637;DHT22;52327;42.622;23.316;2022-12-24T10:52:46;10.96;64.72
65637;DHT22;52327;42.622;23.316;2022-12-24T10:58:03;10.95;64.62
65637;DHT22;52327;42.622;23.316;2022-12-24T11:00:30;10.86;64.86
65637;DHT22;52327;42.622;23.316;2022-12-24T11:05:37;10.48;64.51
65637;DHT22;52327;42.622;23.316;2022-12-24T11:10:43;10.46;65.72
65637;DHT22;52327;42.622;23.316;2022-12-24T11:13:29;10.55;63.82
65637;DHT22;52327;42.622;23.316;2022-12-24T11:16:09;10.14;64.36
65637;DHT22;52327;42.622;23.316;2022-12-24T11:18:46;9.53;65.86
65637;DHT22;52327;42.622;23.316;2022-12-24T11:21:21;9.66;66.96
65637;DHT22;52327;42.622;23.316;2022-12-24T11:23:50;9.84;66.63
65637;DHT22;52327;42.622;23.316;2022-12-24T11:26:21;10.40;63.73
65637;DHT22;52327;42.622;23.316;2022-12-24T11:31:31;10.88;63.24
65637;DHT22;52327;42.622;23.316;2022-12-24T11:34:00;10.93;62.56
65637;DHT22;52327;42.622;23.316;2022-12-24T11:36:25;10.34;63.80
65637;DHT22;52327;42.622;23.316;2022-12-24T11:38:57;10.04;64.98
65637;DHT22;52327;42.622;23.316;2022-12-24T11:41:24;9.90;65.49
65637;DHT22;52327;42.622;23.316;2022-12-24T11:43:58;9.79;65.98
65637;DHT22;52327;42.622;23.316;2022-12-24T11:46:40;10.10;65.39
65637;DHT22;52327;42.622;23.316;2022-12-24T11:51:59;10.41;63.19
65637;DHT22;52327;42.622;23.316;2022-12-24T11:54:30;10.51;63.00
65637;DHT22;52327;42.622;23.316;2022-12-24T11:57:00;10.66;64.60
65637;DHT22;52327;42.622;23.316;2022-12-24T11:59:36;10.88;63.54
65637;DHT22;52327;42.622;23.316;2022-12-24T12:04:43;11.19;61.55
65637;DHT22;52327;42.622;23.316;2022-12-24T12:07:17;11.34;60.89
65637;DHT22;52327;42.622;23.316;2022-12-24T12:09:49;11.03;61.71
65637;DHT22;52327;42.622;23.316;2022-12-24T12:12:27;11.30;61.21
65637;DHT22;52327;42.622;23.316;2022-12-24T12:14:59;11.63;61.01
65637;DHT22;52327;42.622;23.316;2022-12-24T12:17:35;11.79;61.00
65637;DHT22;52327;42.622;23.316;2022-12-24T12:20:13;11.96;59.39
65637;DHT22;52327;42.622;23.316;2022-12-24T12:26:09;11.95;57.60
65637;DHT22;52327;42.622;23.316;2022-12-24T12:31:35;11.67;58.78
65637;DHT22;52327;42.622;23.316;2022-12-24T12:36:32;11.41;59.75
65637;DHT22;52327;42.622;23.316;2022-12-24T12:38:59;11.51;59.52
65637;DHT22;52327;42.622;23.316;2022-12-24T12:42:06;11.74;59.09
65637;DHT22;52327;42.622;23.316;2022-12-24T12:49:52;11.41;60.82
65637;DHT22;52327;42.622;23.316;2022-12-24T12:55:05;10.86;61.52
65637;DHT22;52327;42.622;23.316;2022-12-24T12:57:36;10.66;61.82
65637;DHT22;52327;42.622;23.316;2022-12-24T13:00:09;10.30;63.33
65637;DHT22;52327;42.622;23.316;2022-12-24T13:11:26;10.20;63.18
65637;DHT22;52327;42.622;23.316;2022-12-24T13:22:20;9.33;66.55
65637;DHT22;52327;42.622;23.316;2022-12-24T13:24:50;9.22;66.72
65637;DHT22;52327;42.622;23.316;2022-12-24T13:27:18;9.20;67.41
65637;DHT22;52327;42.622;23.316;2022-12-24T13:29:52;9.30;71.36
65637;DHT22;52327;42.622;23.316;2022-12-24T13:35:00;8.89;73.81
65637;DHT22;52327;42.622;23.316;2022-12-24T13:37:33;8.64;75.02
65637;DHT22;52327;42.622;23.316;2022-12-24T13:40:14;8.57;75.41
65637;DHT22;52327;42.622;23.316;2022-12-24T13:55:50;8.63;74.79
65637;DHT22;52327;42.622;23.316;2022-12-24T13:58:18;8.50;69.56
65637;DHT22;52327;42.622;23.316;2022-12-24T14:01:02;8.51;72.87
65637;DHT22;52327;42.622;23.316;2022-12-24T14:03:34;8.50;72.07
65637;DHT22;52327;42.622;23.316;2022-12-24T14:06:04;8.37;74.99
65637;DHT22;52327;42.622;23.316;2022-12-24T14:08:39;8.22;73.35
65637;DHT22;52327;42.622;23.316;2022-12-24T14:11:20;8.03;77.38
65637;DHT22;52327;42.622;23.316;2022-12-24T14:13:49;7.86;80.13
65637;DHT22;52327;42.622;23.316;2022-12-24T14:16:27;7.90;79.71
65637;DHT22;52327;42.622;23.316;2022-12-24T14:19:02;7.85;82.97
65637;DHT22;52327;42.622;23.316;2022-12-24T14:21:31;7.54;83.15
65637;DHT22;52327;42.622;23.316;2022-12-24T14:24:20;7.28;85.38
65637;DHT22;52327;42.622;23.316;2022-12-24T14:26:50;7.23;86.81
65637;DHT22;52327;42.622;23.316;2022-12-24T14:29:25;7.10;88.53
65637;DHT22;52327;42.622;23.316;2022-12-24T14:31:52;7.14;88.56
65637;DHT22;52327;42.622;23.316;2022-12-24T14:34:18;7.17;89.72
65637;DHT22;52327;42.622;23.316;2022-12-24T14:36:45;7.21;90.27
65637;DHT22;52327;42.622;23.316;2022-12-24T14:39:21;7.28;89.49
65637;DHT22;52327;42.622;23.316;2022-12-24T14:44:45;7.00;90.19
65637;DHT22;52327;42.622;23.316;2022-12-24T14:47:44;6.93;91.27
65637;DHT22;52327;42.622;23.316;2022-12-24T14:53:01;7.05;91.77
65637;DHT22;52327;42.622;23.316;2022-12-24T14:55:44;6.99;91.16
65637;DHT22;52327;42.622;23.316;2022-12-24T14:58:30;6.82;91.25
65637;DHT22;52327;42.622;23.316;2022-12-24T15:01:02;6.76;91.66
65637;DHT22;52327;42.622;23.316;2022-12-24T15:03:30;6.75;91.94
65637;DHT22;52327;42.622;23.316;2022-12-24T15:05:59;6.84;91.87
65637;DHT22;52327;42.622;23.316;2022-12-24T15:08:32;6.84;91.36
65637;DHT22;52327;42.622;23.316;2022-12-24T15:11:04;6.90;91.58
65637;DHT22;52327;42.622;23.316;2022-12-24T15:13:36;6.87;91.83
65637;DHT22;52327;42.622;23.316;2022-12-24T15:16:04;6.86;91.88
65637;DHT22;52327;42.622;23.316;2022-12-24T15:18:33;6.77;92.07
65637;DHT22;52327;42.622;23.316;2022-12-24T15:21:03;6.66;92.59
65637;DHT22;52327;42.622;23.316;2022-12-24T15:23:32;6.56;92.54
65637;DHT22;52327;42.622;23.316;2022-12-24T15:28:42;6.50;93.26
65637;DHT22;52327;42.622;23.316;2022-12-24T15:31:34;6.61;93.04
65637;DHT22;52327;42.622;23.316;2022-12-24T15:33:59;6.76;92.72
65637;DHT22;52327;42.622;23.316;2022-12-24T15:36:32;6.86;92.11
65637;DHT22;52327;42.622;23.316;2022-12-24T15:39:02;6.93;92.47
65637;DHT22;52327;42.622;23.316;2022-12-24T15:41:35;7.03;92.31
65637;DHT22;52327;42.622;23.316;2022-12-24T15:44:02;7.07;91.52
65637;DHT22;52327;42.622;23.316;2022-12-24T15:46:29;7.08;92.23
65637;DHT22;52327;42.622;23.316;2022-12-24T15:48:57;7.14;92.00
65637;DHT22;52327;42.622;23.316;2022-12-24T15:51:35;7.27;91.64
65637;DHT22;52327;42.622;23.316;2022-12-24T15:54:06;7.34;91.45
65637;DHT22;52327;42.622;23.316;2022-12-24T15:56:44;7.45;90.81
65637;DHT22;52327;42.622;23.316;2022-12-24T15:59:26;7.66;88.92
65637;DHT22;52327;42.622;23.316;2022-12-24T16:01:52;7.83;88.66
65637;DHT22;52327;42.622;23.316;2022-12-24T16:04:24;7.96;87.79
65637;DHT22;52327;42.622;23.316;2022-12-24T16:06:57;7.99;87.98
65637;DHT22;52327;42.622;23.316;2022-12-24T16:12:02;7.99;87.96
65637;DHT22;52327;42.622;23.316;2022-12-24T16:14:28;7.99;87.85
65637;DHT22;52327;42.622;23.316;2022-12-24T16:16:54;7.95;87.99
65637;DHT22;52327;42.622;23.316;2022-12-24T16:19:25;7.93;87.38
65637;DHT22;52327;42.622;23.316;2022-12-24T16:21:57;7.88;87.28
65637;DHT22;52327;42.622;23.316;2022-12-24T16:24:25;7.92;87.34
65637;DHT22;52327;42.622;23.316;2022-12-24T16:26:52;8.02;87.28
65637;DHT22;52327;42.622;23.316;2022-12-24T16:29:18;8.05;86.70
65637;DHT22;52327;42.622;23.316;2022-12-24T16:31:52;8.10;85.57
65637;DHT22;52327;42.622;23.316;2022-12-24T16:34:20;8.09;85.71
65637;DHT22;52327;42.622;23.316;2022-12-24T16:36:46;8.05;85.82
65637;DHT22;52327;42.622;23.316;2022-12-24T16:39:12;8.09;85.40
65637;DHT22;52327;42.622;23.316;2022-12-24T16:41:47;8.07;85.02
65637;DHT22;52327;42.622;23.316;2022-12-24T16:44:31;8.02;85.50
65637;DHT22;52327;42.622;23.316;2022-12-24T16:46:57;8.00;85.26
65637;DHT22;52327;42.622;23.316;2022-12-24T16:49:24;7.90;85.80
65637;DHT22;52327;42.622;23.316;2022-12-24T16:51:50;7.89;86.09
65637;DHT22;52327;42.622;23.316;2022-12-24T16:54:15;7.85;86.33
65637;DHT22;52327;42.622;23.316;2022-12-24T16:56:42;7.82;86.22
65637;DHT22;52327;42.622;23.316;2022-12-24T16:59:18;7.78;86.06
65637;DHT22;52327;42.622;23.316;2022-12-24T17:01:46;7.76;86.66
65637;DHT22;52327;42.622;23.316;2022-12-24T17:04:12;7.71;86.41
65637;DHT22;52327;42.622;23.316;2022-12-24T17:06:38;7.76;87.22
65637;DHT22;52327;42.622;23.316;2022-12-24T17:09:04;7.82;87.26
65637;DHT22;52327;42.622;23.316;2022-12-24T17:11:30;7.83;86.72
65637;DHT22;52327;42.622;23.316;2022-12-24T17:13:55;7.85;87.36
65637;DHT22;52327;42.622;23.316;2022-12-24T17:16:21;7.85;87.12
65637;DHT22;52327;42.622;23.316;2022-12-24T17:18:47;7.65;89.22
65637;DHT22;52327;42.622;23.316;2022-12-24T17:21:14;7.52;89.26
65637;DHT22;52327;42.622;23.316;2022-12-24T17:23:40;7.48;90.08
65637;DHT22;52327;42.622;23.316;2022-12-24T17:26:06;7.48;90.35
65637;DHT22;52327;42.622;23.316;2022-12-24T17:28:32;7.52;91.02